Time;durP1;ratioP1;P1;durP2;ratioP2;P2;SDS_P1;SDS_P2;PMS_P1;PMS_P2;Temp;Humidity;BMP_temperature;BMP_pressure;BME280_temperature;BME280_humidity;BME280_pressure;Samples;Min_cycle;Max_cycle;Signal;HPM_P1;HPM_P2
2023/09/10 00:00:09;;;;;;;9.07;7.47;;;26.00;84.10;;;;;;5066851;28;20033;-52
2023/09/10 00:02:36;;;;;;;8.98;7.55;;;26.00;84.10;;;;;;5048899;28;20029;-52
2023/09/10 00:05:01;;;;;;;8.95;7.38;;;26.00;84.20;;;;;;5048903;28;20501;-52
2023/09/10 00:07:27;;;;;;;11.10;7.93;;;26.00;84.30;;;;;;5066644;28;20087;-52
2023/09/10 00:09:53;;;;;;;8.70;6.93;;;26.00;84.40;;;;;;5066584;28;20073;-52
2023/09/10 00:12:18;;;;;;;7.85;7.13;;;26.00;84.60;;;;;;5048879;28;20052;-52
2023/09/10 00:14:44;;;;;;;9.70;7.13;;;25.90;84.70;;;;;;5066486;28;20588;-52
2023/09/10 00:17:09;;;;;;;8.02;7.30;;;25.90;84.70;;;;;;5066479;28;20366;-52
2023/09/10 00:19:35;;;;;;;9.02;7.63;;;25.90;84.80;;;;;;5048697;28;20037;-52
2023/09/10 00:22:00;;;;;;;9.35;7.80;;;25.80;84.90;;;;;;5066229;28;20035;-52
2023/09/10 00:24:26;;;;;;;7.40;6.70;;;25.80;85.10;;;;;;5066320;28;20096;-52
2023/09/10 00:26:51;;;;;;;7.78;7.00;;;25.80;85.20;;;;;;5066331;28;20104;-52
2023/09/10 00:29:17;;;;;;;8.18;7.38;;;25.80;85.20;;;;;;5066431;28;20052;-52
2023/09/10 00:31:43;;;;;;;8.18;7.35;;;25.70;85.10;;;;;;5048540;28;20037;-52
2023/09/10 00:34:08;;;;;;;7.93;6.95;;;25.80;85.20;;;;;;5048274;28;20045;-52
2023/09/10 00:36:34;;;;;;;8.88;7.97;;;25.70;85.20;;;;;;5048631;28;20123;-52
2023/09/10 00:39:00;;;;;;;8.65;7.15;;;25.70;85.30;;;;;;5048101;28;20393;-52
2023/09/10 00:41:25;;;;;;;8.25;7.40;;;25.70;85.40;;;;;;5015395;28;20025;-52
2023/09/10 00:43:51;;;;;;;8.23;7.43;;;25.60;85.50;;;;;;5048496;28;20053;-52
2023/09/10 00:46:17;;;;;;;9.20;7.60;;;25.60;85.60;;;;;;5066071;28;20025;-52
2023/09/10 00:48:42;;;;;;;9.77;7.53;;;25.60;85.70;;;;;;5048121;28;20033;-52
2023/09/10 00:51:08;;;;;;;8.50;7.72;;;25.60;85.70;;;;;;5031890;28;20033;-52
2023/09/10 00:53:34;;;;;;;10.00;7.65;;;25.60;85.90;;;;;;5031558;28;20114;-52
2023/09/10 00:55:59;;;;;;;8.13;7.32;;;25.60;86.00;;;;;;5065905;28;20055;-52
2023/09/10 00:58:25;;;;;;;8.80;7.63;;;25.50;86.00;;;;;;5031736;28;20041;-52
2023/09/10 01:00:50;;;;;;;8.30;7.60;;;25.50;86.20;;;;;;5051833;28;20025;-52
2023/09/10 01:03:16;;;;;;;9.23;7.80;;;25.40;86.20;;;;;;5035848;28;20485;-52
2023/09/10 01:05:41;;;;;;;9.05;7.82;;;25.40;86.20;;;;;;5035708;28;20047;-52
2023/09/10 01:08:07;;;;;;;8.90;7.78;;;25.40;86.30;;;;;;5052150;28;20151;-52
2023/09/10 01:10:42;;;;;;;9.18;7.35;;;25.40;86.40;;;;;;5070052;28;20039;-52
2023/09/10 01:13:46;;;;;;;10.20;7.22;;;25.30;86.40;;;;;;5052208;28;20052;-52
2023/09/10 01:16:16;;;;;;;8.40;7.55;;;25.40;86.60;;;;;;5069982;28;20110;-52
2023/09/10 01:18:54;;;;;;;8.75;7.85;;;25.30;86.70;;;;;;5052505;28;20091;-52
2023/09/10 01:22:00;;;;;;;8.45;6.70;;;25.30;86.70;;;;;;5069848;28;20048;-52
2023/09/10 01:24:44;;;;;;;7.82;7.05;;;25.30;86.90;;;;;;5051881;28;20047;-52
2023/09/10 01:27:09;;;;;;;7.63;7.03;;;25.30;87.00;;;;;;5069709;28;20037;-52
2023/09/10 01:29:35;;;;;;;9.30;7.40;;;25.20;87.00;;;;;;5034913;28;20059;-52
2023/09/10 01:32:01;;;;;;;11.02;7.95;;;25.20;87.10;;;;;;5051657;28;20120;-52
2023/09/10 01:34:31;;;;;;;8.55;7.63;;;25.20;87.00;;;;;;5035279;28;20068;-52
2023/09/10 01:37:02;;;;;;;8.35;7.55;;;25.20;87.80;;;;;;5035608;28;20064;-52
2023/09/10 01:39:36;;;;;;;9.43;7.60;;;25.20;87.20;;;;;;5069493;28;20037;-52
2023/09/10 01:42:03;;;;;;;9.18;7.68;;;25.10;87.20;;;;;;5020112;28;20398;-52
2023/09/10 01:44:31;;;;;;;8.45;7.55;;;25.10;87.20;;;;;;5035091;28;20060;-52
2023/09/10 01:46:56;;;;;;;8.20;7.43;;;25.10;87.20;;;;;;5051906;28;20032;-52
2023/09/10 01:49:22;;;;;;;8.57;7.82;;;25.10;87.30;;;;;;5034480;28;20052;-52
2023/09/10 01:51:48;;;;;;;7.80;7.10;;;25.10;87.40;;;;;;5034670;28;20032;-52
2023/09/10 01:54:13;;;;;;;8.20;7.40;;;25.10;87.40;;;;;;5069047;28;20405;-52
2023/09/10 01:56:39;;;;;;;8.10;7.30;;;25.10;87.40;;;;;;5051092;28;20033;-52
2023/09/10 01:59:04;;;;;;;8.48;7.65;;;25.10;87.50;;;;;;5068913;28;20041;-52
2023/09/10 02:01:30;;;;;;;8.40;7.63;;;25.00;87.40;;;;;;5051168;28;20036;-52
2023/09/10 02:03:55;;;;;;;8.85;8.05;;;25.00;87.50;;;;;;5051053;28;20053;-52
2023/09/10 02:06:21;;;;;;;8.00;7.20;;;25.00;87.70;;;;;;5068953;28;20021;-52
2023/09/10 02:08:46;;;;;;;9.32;7.72;;;24.90;87.80;;;;;;5068740;28;20025;-52
2023/09/10 02:11:12;;;;;;;8.30;7.50;;;24.90;87.80;;;;;;5049520;28;20068;-52
2023/09/10 02:13:38;;;;;;;9.02;7.97;;;24.90;87.80;;;;;;5050879;28;20029;-52
2023/09/10 02:16:03;;;;;;;11.77;8.05;;;24.90;87.90;;;;;;5068657;28;20044;-52
2023/09/10 02:18:29;;;;;;;8.30;7.50;;;24.90;88.00;;;;;;5050982;28;20045;-52
2023/09/10 02:20:55;;;;;;;10.90;8.05;;;24.90;88.10;;;;;;5050737;28;20088;-52
2023/09/10 02:23:20;;;;;;;12.88;7.45;;;24.80;88.20;;;;;;5068637;28;20025;-52
2023/09/10 02:25:46;;;;;;;8.10;7.40;;;24.80;88.20;;;;;;5068718;28;20421;-52
2023/09/10 02:28:12;;;;;;;8.15;7.43;;;24.80;88.30;;;;;;5050657;28;20037;-52
2023/09/10 02:30:37;;;;;;;8.55;7.78;;;24.80;88.30;;;;;;5068533;28;20049;-52
2023/09/10 02:33:03;;;;;;;8.25;7.32;;;24.80;88.30;;;;;;5034294;28;20029;-52
2023/09/10 02:35:29;;;;;;;8.75;7.90;;;24.80;88.50;;;;;;5068496;28;20045;-52
2023/09/10 02:37:54;;;;;;;8.98;8.10;;;24.70;88.60;;;;;;5050472;28;20037;-52
2023/09/10 02:40:20;;;;;;;8.90;7.45;;;24.70;88.70;;;;;;5068323;28;20033;-52
2023/09/10 02:42:45;;;;;;;8.88;7.82;;;24.70;88.80;;;;;;5050505;28;20047;-52
2023/09/10 02:45:11;;;;;;;9.45;7.38;;;24.70;89.00;;;;;;5068219;28;20371;-52
2023/09/10 02:47:37;;;;;;;9.38;7.82;;;24.60;89.60;;;;;;5068154;28;20033;-52
2023/09/10 02:50:03;;;;;;;8.57;7.63;;;24.60;89.00;;;;;;5050155;28;20048;-52
2023/09/10 02:52:30;;;;;;;8.85;7.97;;;24.60;89.10;;;;;;5050432;28;20033;-52
2023/09/10 02:54:56;;;;;;;9.35;8.45;;;24.60;89.10;;;;;;5067889;28;20045;-52
2023/09/10 02:57:22;;;;;;;8.77;7.90;;;24.60;89.10;;;;;;5050297;28;20449;-52
2023/09/10 02:59:47;;;;;;;8.48;7.30;;;24.60;89.20;;;;;;5033629;28;20041;-52
2023/09/10 03:02:13;;;;;;;9.45;8.15;;;24.60;89.30;;;;;;5050117;28;20033;-51
2023/09/10 03:04:39;;;;;;;8.23;7.53;;;24.60;89.30;;;;;;5067715;28;20041;-52
2023/09/10 03:07:04;;;;;;;9.40;8.50;;;24.50;89.30;;;;;;5049847;28;20055;-52
2023/09/10 03:09:30;;;;;;;9.38;8.48;;;24.50;89.50;;;;;;5049937;28;20052;-52
2023/09/10 03:12:24;;;;;;;8.35;7.55;;;24.50;89.50;;;;;;5067754;28;20033;-52
2023/09/10 03:14:49;;;;;;;8.35;7.57;;;24.50;89.50;;;;;;5035183;28;20048;-52
2023/09/10 03:17:16;;;;;;;9.77;7.70;;;24.50;89.60;;;;;;5033136;28;20036;-52
2023/09/10 03:19:41;;;;;;;8.68;7.78;;;24.50;89.60;;;;;;5033274;28;20163;-52
2023/09/10 03:22:07;;;;;;;8.55;7.75;;;24.40;89.60;;;;;;5032680;28;20608;-52
2023/09/10 03:24:36;;;;;;;9.10;8.18;;;24.40;89.70;;;;;;5067350;28;20045;-52
2023/09/10 03:27:01;;;;;;;9.02;8.23;;;24.40;89.70;;;;;;5067441;28;20037;-52
2023/09/10 03:29:27;;;;;;;8.18;7.40;;;24.40;89.80;;;;;;5067413;28;20104;-52
2023/09/10 03:31:53;;;;;;;9.38;8.40;;;24.40;89.90;;;;;;5049587;28;20033;-52
2023/09/10 03:34:18;;;;;;;9.75;8.35;;;24.40;90.00;;;;;;5067257;28;20042;-52
2023/09/10 03:36:44;;;;;;;8.68;7.80;;;24.40;90.00;;;;;;5049423;28;20056;-52
2023/09/10 03:39:10;;;;;;;8.85;8.02;;;24.40;90.00;;;;;;5067041;28;20071;-52
2023/09/10 03:41:35;;;;;;;8.32;7.60;;;24.30;90.00;;;;;;5067067;28;20124;-52
2023/09/10 03:44:01;;;;;;;9.13;8.18;;;24.30;90.00;;;;;;5049214;28;20041;-52
2023/09/10 03:46:26;;;;;;;9.07;8.18;;;24.30;90.10;;;;;;5067125;28;20108;-52
2023/09/10 03:48:52;;;;;;;9.27;8.38;;;24.30;90.10;;;;;;5066867;28;20481;-52
2023/09/10 03:51:17;;;;;;;9.68;8.23;;;24.20;90.10;;;;;;5067037;28;20033;-52
2023/09/10 03:53:43;;;;;;;14.07;7.93;;;24.20;90.10;;;;;;5066830;28;20454;-52
2023/09/10 03:56:08;;;;;;;9.55;7.88;;;24.20;90.10;;;;;;5066815;28;20036;-52
2023/09/10 03:58:34;;;;;;;9.60;8.75;;;24.20;90.10;;;;;;5066575;28;20029;-52
2023/09/10 04:00:59;;;;;;;8.23;7.47;;;24.20;90.40;;;;;;5066632;28;20037;-52
2023/09/10 04:03:26;;;;;;;10.65;7.93;;;24.20;90.20;;;;;;5048437;28;20028;-52
2023/09/10 04:05:52;;;;;;;9.00;7.90;;;24.20;90.30;;;;;;5048975;28;20032;-51
2023/09/10 04:08:18;;;;;;;9.07;8.05;;;24.10;90.30;;;;;;5066574;28;20049;-52
2023/09/10 04:10:43;;;;;;;9.80;7.88;;;24.10;90.30;;;;;;5048500;28;20037;-52
2023/09/10 04:13:09;;;;;;;8.82;7.95;;;24.10;90.30;;;;;;5048668;28;20518;-52
2023/09/10 04:15:34;;;;;;;8.80;8.00;;;24.10;90.40;;;;;;5048489;28;20045;-52
2023/09/10 04:18:00;;;;;;;9.18;8.00;;;24.10;90.40;;;;;;5048828;28;20033;-52
2023/09/10 04:20:25;;;;;;;9.07;8.18;;;24.10;90.40;;;;;;5066599;28;20486;-52
2023/09/10 04:22:51;;;;;;;9.30;8.30;;;24.10;90.40;;;;;;5066469;28;20052;-52
2023/09/10 04:25:19;;;;;;;9.35;8.45;;;24.00;90.40;;;;;;5066479;28;20037;-52
2023/09/10 04:27:45;;;;;;;8.90;7.97;;;24.00;90.50;;;;;;5048881;28;20056;-52
2023/09/10 04:30:10;;;;;;;8.98;8.07;;;24.00;90.50;;;;;;5048408;28;20041;-52
2023/09/10 04:32:36;;;;;;;8.98;8.23;;;24.00;90.60;;;;;;5066420;28;20087;-52
2023/09/10 04:35:04;;;;;;;8.73;7.90;;;24.00;90.60;;;;;;5047449;28;20045;-52
2023/09/10 04:37:30;;;;;;;8.60;7.75;;;23.90;90.60;;;;;;5048753;28;20032;-52
2023/09/10 04:39:56;;;;;;;8.68;7.88;;;23.90;90.60;;;;;;5048163;28;20420;-52
2023/09/10 04:42:21;;;;;;;10.18;8.27;;;23.90;90.60;;;;;;5066057;28;20035;-52
2023/09/10 04:44:48;;;;;;;8.65;7.95;;;23.90;90.70;;;;;;5066222;28;20440;-52
2023/09/10 04:47:13;;;;;;;10.38;8.25;;;23.80;90.70;;;;;;5048451;28;20071;-52
2023/09/10 04:49:39;;;;;;;11.30;8.63;;;23.80;90.80;;;;;;5031612;28;20045;-52
2023/09/10 04:52:05;;;;;;;8.90;8.02;;;23.80;90.80;;;;;;5031727;28;20033;-52
2023/09/10 04:54:30;;;;;;;8.55;7.75;;;23.80;90.80;;;;;;5048258;28;20044;-52
2023/09/10 04:56:56;;;;;;;11.75;8.90;;;23.80;90.80;;;;;;5066086;28;20132;-52
2023/09/10 04:59:21;;;;;;;9.10;8.20;;;23.80;90.80;;;;;;5066016;28;20037;-52
2023/09/10 05:01:48;;;;;;;8.63;7.80;;;23.80;90.80;;;;;;5048221;28;20040;-52
2023/09/10 05:04:13;;;;;;;9.50;8.52;;;23.80;90.80;;;;;;5065931;28;20045;-52
2023/09/10 05:06:39;;;;;;;8.48;7.70;;;23.70;90.90;;;;;;5048225;28;20539;-52
2023/09/10 05:09:04;;;;;;;10.25;8.27;;;23.70;90.90;;;;;;5065910;28;20045;-52
2023/09/10 05:11:30;;;;;;;9.82;8.77;;;23.70;90.90;;;;;;5065817;28;20398;-52
2023/09/10 05:13:55;;;;;;;8.77;7.95;;;23.70;91.00;;;;;;5031482;28;20102;-52
2023/09/10 05:16:21;;;;;;;9.25;8.43;;;23.60;91.00;;;;;;5065845;28;20051;-52
2023/09/10 05:18:47;;;;;;;8.35;7.63;;;23.60;91.00;;;;;;5065766;28;20037;-53
2023/09/10 05:21:13;;;;;;;8.55;7.75;;;23.60;91.30;;;;;;5048108;28;20036;-52
2023/09/10 05:23:39;;;;;;;10.48;8.38;;;23.60;91.10;;;;;;5065934;28;20033;-52
2023/09/10 05:26:05;;;;;;;8.77;8.02;;;23.60;91.10;;;;;;5065831;28;20037;-52
2023/09/10 05:28:30;;;;;;;8.93;8.05;;;23.60;91.00;;;;;;5065767;28;20029;-52
2023/09/10 05:30:56;;;;;;;9.38;8.15;;;23.60;91.10;;;;;;5065530;28;20048;-52
2023/09/10 05:33:22;;;;;;;8.75;7.90;;;23.60;91.10;;;;;;5031263;28;20040;-52
2023/09/10 05:35:58;;;;;;;9.57;8.63;;;23.60;91.10;;;;;;5065589;28;20370;-52
2023/09/10 05:38:24;;;;;;;8.88;7.57;;;23.60;91.10;;;;;;5047792;28;20084;-52
2023/09/10 05:40:49;;;;;;;8.57;7.72;;;23.50;91.10;;;;;;5047823;28;20037;-52
2023/09/10 05:43:15;;;;;;;8.98;8.18;;;23.60;91.10;;;;;;5047932;28;20033;-52
2023/09/10 05:45:40;;;;;;;9.07;8.25;;;23.60;91.10;;;;;;5049091;28;20033;-52
2023/09/10 05:48:06;;;;;;;9.65;7.82;;;23.50;91.10;;;;;;5068991;28;20040;-52
2023/09/10 05:50:32;;;;;;;9.43;8.48;;;23.50;91.10;;;;;;5034717;28;20041;-52
2023/09/10 05:52:59;;;;;;;8.70;7.90;;;23.50;91.10;;;;;;5069070;28;20059;-52
2023/09/10 05:55:25;;;;;;;8.90;8.10;;;23.50;91.10;;;;;;5035321;28;20060;-52
2023/09/10 05:57:52;;;;;;;8.77;7.97;;;23.50;91.10;;;;;;5051117;28;20040;-51
2023/09/10 06:00:18;;;;;;;9.27;8.38;;;23.50;91.10;;;;;;5034701;28;20041;-52
2023/09/10 06:02:43;;;;;;;9.02;8.15;;;23.50;91.10;;;;;;5069089;28;20029;-52
2023/09/10 06:05:09;;;;;;;9.13;8.20;;;23.40;91.20;;;;;;5051076;28;20049;-51
2023/09/10 06:07:34;;;;;;;10.13;8.65;;;23.40;91.20;;;;;;5050905;28;20062;-51
2023/09/10 06:10:00;;;;;;;9.30;8.40;;;23.40;91.20;;;;;;5051037;28;20045;-52
2023/09/10 06:12:25;;;;;;;9.25;7.95;;;23.40;91.20;;;;;;5068500;28;20025;-51
2023/09/10 06:14:51;;;;;;;10.13;8.23;;;23.40;91.20;;;;;;5050917;28;20583;-51
2023/09/10 06:17:17;;;;;;;9.82;8.30;;;23.40;91.30;;;;;;5034114;28;20029;-52
2023/09/10 06:19:43;;;;;;;8.35;7.65;;;23.40;91.30;;;;;;5051000;28;20041;-51
2023/09/10 06:22:08;;;;;;;12.55;8.45;;;23.40;91.30;;;;;;5068551;28;20044;-51
2023/09/10 06:24:34;;;;;;;8.73;7.93;;;23.40;91.30;;;;;;5050657;28;20041;-51
2023/09/10 06:26:59;;;;;;;8.93;8.13;;;23.40;91.30;;;;;;5050797;28;20035;-51
2023/09/10 06:29:25;;;;;;;10.82;7.57;;;23.40;91.30;;;;;;5050704;28;20037;-51
2023/09/10 06:31:50;;;;;;;10.15;8.50;;;23.30;91.30;;;;;;5068478;28;20075;-52
2023/09/10 06:34:16;;;;;;;9.07;8.27;;;23.30;91.40;;;;;;5050308;28;20476;-51
2023/09/10 06:36:41;;;;;;;9.27;8.10;;;23.30;91.40;;;;;;5050416;28;20512;-51
2023/09/10 06:39:07;;;;;;;8.98;8.07;;;23.30;91.40;;;;;;5033978;28;20037;-51
2023/09/10 06:41:32;;;;;;;9.05;7.78;;;23.30;91.40;;;;;;5050501;28;20033;-51
2023/09/10 06:43:58;;;;;;;10.20;7.78;;;23.30;91.50;;;;;;5050411;28;20049;-51
2023/09/10 06:46:23;;;;;;;8.88;7.93;;;23.30;91.40;;;;;;5033731;28;20036;-52
2023/09/10 06:48:49;;;;;;;9.57;8.50;;;23.30;91.80;;;;;;5068017;28;20037;-51
2023/09/10 06:51:15;;;;;;;8.25;7.47;;;23.30;91.50;;;;;;5033763;28;20064;-51
2023/09/10 06:53:40;;;;;;;8.95;8.02;;;23.30;91.50;;;;;;5068050;28;20431;-51
2023/09/10 06:56:06;;;;;;;9.98;8.57;;;23.30;91.50;;;;;;5067880;28;20453;-51
2023/09/10 06:58:31;;;;;;;8.75;7.63;;;23.30;91.50;;;;;;5067269;28;20052;-51
2023/09/10 07:01:02;;;;;;;8.55;7.78;;;23.30;91.90;;;;;;5033451;28;20037;-51
2023/09/10 07:03:28;;;;;;;9.15;7.90;;;23.30;91.60;;;;;;5034002;28;20040;-52
2023/09/10 07:05:53;;;;;;;9.35;7.65;;;23.20;91.60;;;;;;5067643;28;20091;-51
2023/09/10 07:08:19;;;;;;;8.73;7.93;;;23.20;91.60;;;;;;5033122;28;20040;-52
2023/09/10 07:10:44;;;;;;;10.48;7.90;;;23.30;91.60;;;;;;5067710;28;20060;-51
2023/09/10 07:13:10;;;;;;;7.93;7.22;;;23.30;91.50;;;;;;5033436;28;20028;-51
2023/09/10 07:15:36;;;;;;;8.48;7.68;;;23.30;91.50;;;;;;5067814;28;20033;-51
2023/09/10 07:18:03;;;;;;;8.63;7.82;;;23.30;91.50;;;;;;5067650;28;20029;-51
2023/09/10 07:20:29;;;;;;;8.65;7.85;;;23.30;91.50;;;;;;5067490;28;20082;-51
2023/09/10 07:22:54;;;;;;;8.27;7.57;;;23.30;91.50;;;;;;5069955;28;20045;-51
2023/09/10 07:25:20;;;;;;;8.50;7.70;;;23.30;91.50;;;;;;5074036;28;20040;-51
2023/09/10 07:27:46;;;;;;;8.75;7.60;;;23.30;91.50;;;;;;5068874;28;20036;-51
2023/09/10 07:30:11;;;;;;;8.88;8.10;;;23.30;91.60;;;;;;5087198;28;20041;-51
2023/09/10 07:32:37;;;;;;;9.13;8.20;;;23.30;91.70;;;;;;5068539;28;20028;-51
2023/09/10 07:35:03;;;;;;;9.70;8.30;;;23.30;91.80;;;;;;5068398;28;20053;-52
2023/09/10 07:37:28;;;;;;;9.73;8.82;;;23.00;91.80;;;;;;5087346;28;20032;-51
2023/09/10 07:39:54;;;;;;;12.02;9.45;;;23.30;92.10;;;;;;5068325;28;20029;-51
2023/09/10 07:42:19;;;;;;;11.05;9.40;;;23.30;92.70;;;;;;5069304;28;20025;-51
2023/09/10 07:44:45;;;;;;;10.27;9.20;;;23.30;92.60;;;;;;5069002;28;20095;-51
2023/09/10 07:47:13;;;;;;;10.25;9.18;;;23.20;92.70;;;;;;5086867;28;20042;-52
2023/09/10 07:49:39;;;;;;;10.27;9.15;;;23.20;92.70;;;;;;5082621;28;20447;-52
2023/09/10 07:52:05;;;;;;;11.38;10.18;;;23.20;92.80;;;;;;5065986;28;20032;-51
2023/09/10 07:54:35;;;;;;;10.52;9.63;;;23.30;93.00;;;;;;5067404;28;20032;-51
2023/09/10 07:57:01;;;;;;;13.35;10.50;;;23.20;93.30;;;;;;5052834;28;20035;-52
2023/09/10 07:59:27;;;;;;;11.07;10.07;;;23.20;93.50;;;;;;5086848;28;20033;-52
2023/09/10 08:01:52;;;;;;;11.80;10.60;;;23.20;93.50;;;;;;5085265;28;20044;-52
2023/09/10 08:04:18;;;;;;;12.25;10.93;;;23.20;93.70;;;;;;5065893;28;20040;-52
2023/09/10 08:06:43;;;;;;;11.82;10.73;;;23.20;94.10;;;;;;5084675;28;20032;-52
2023/09/10 08:09:09;;;;;;;17.52;10.75;;;23.20;94.30;;;;;;5085716;28;20044;-53
2023/09/10 08:11:35;;;;;;;11.82;10.68;;;23.20;94.60;;;;;;5068708;28;20032;-52
2023/09/10 08:14:00;;;;;;;14.32;10.68;;;23.10;94.90;;;;;;5086316;28;20046;-53
2023/09/10 08:16:26;;;;;;;18.88;11.38;;;23.10;94.90;;;;;;5066303;28;20037;-52
2023/09/10 08:18:51;;;;;;;15.25;10.52;;;23.10;95.10;;;;;;5068082;28;20051;-53
2023/09/10 08:21:17;;;;;;;16.45;10.77;;;23.20;95.10;;;;;;5086154;28;20078;-52
2023/09/10 08:23:43;;;;;;;20.83;11.25;;;23.20;94.90;;;;;;5082226;28;20033;-53
2023/09/10 08:26:08;;;;;;;20.10;10.73;;;23.20;95.10;;;;;;5066080;28;20040;-52
2023/09/10 08:28:34;;;;;;;17.55;10.93;;;23.20;94.90;;;;;;5067241;28;20040;-52
2023/09/10 08:31:00;;;;;;;17.55;11.57;;;23.30;95.00;;;;;;5067388;28;20041;-52
2023/09/10 08:33:25;;;;;;;28.60;11.82;;;23.30;95.00;;;;;;5064239;28;20128;-54
2023/09/10 08:35:51;;;;;;;17.70;11.45;;;23.30;95.00;;;;;;5085706;28;20036;-53
2023/09/10 08:38:17;;;;;;;26.50;12.60;;;23.30;95.50;;;;;;5049976;28;20039;-53
2023/09/10 08:40:55;;;;;;;30.33;12.82;;;23.40;95.60;;;;;;5085957;28;20044;-51
2023/09/10 08:43:22;;;;;;;24.95;11.68;;;23.40;96.10;;;;;;5068184;28;20048;-52
2023/09/10 08:45:48;;;;;;;26.88;11.65;;;23.40;95.70;;;;;;5066860;28;20040;-51
2023/09/10 08:48:14;;;;;;;25.52;12.85;;;23.40;95.40;;;;;;5050432;28;20043;-52
2023/09/10 08:50:40;;;;;;;30.25;11.95;;;23.50;95.30;;;;;;5053538;28;20044;-54
2023/09/10 08:53:06;;;;;;;36.60;12.60;;;23.50;95.30;;;;;;5047373;28;20040;-51
2023/09/10 08:55:31;;;;;;;63.38;15.88;;;23.50;95.40;;;;;;5073830;28;20092;-51
2023/09/10 08:57:57;;;;;;;62.22;13.90;;;23.50;95.80;;;;;;5055017;28;20060;-52
2023/09/10 09:00:23;;;;;;;49.00;15.05;;;23.60;95.70;;;;;;5050784;28;20025;-52
2023/09/10 09:02:49;;;;;;;38.70;13.48;;;23.60;95.80;;;;;;5066143;28;20021;-52
2023/09/10 09:05:15;;;;;;;68.93;17.00;;;23.60;96.00;;;;;;5059872;28;20065;-50
2023/09/10 09:07:47;;;;;;;66.70;16.80;;;23.60;96.30;;;;;;5085317;28;20044;-52
2023/09/10 09:10:21;;;;;;;61.40;16.85;;;23.70;96.50;;;;;;5064537;28;20072;-51
2023/09/10 09:12:47;;;;;;;50.72;15.63;;;23.70;96.60;;;;;;5066527;28;20037;-52
2023/09/10 09:15:13;;;;;;;69.90;16.75;;;23.70;96.60;;;;;;5045695;28;20481;-52
2023/09/10 09:17:38;;;;;;;76.03;17.25;;;23.70;96.70;;;;;;5055780;28;20048;-51
2023/09/10 09:20:09;;;;;;;50.85;15.75;;;23.80;97.10;;;;;;5064116;28;20037;-52
2023/09/10 09:22:35;;;;;;;80.35;17.77;;;23.80;97.00;;;;;;5038862;28;20024;-52
2023/09/10 09:25:02;;;;;;;59.55;16.60;;;23.80;97.00;;;;;;5052210;28;20066;-52
2023/09/10 09:27:27;;;;;;;105.80;22.08;;;23.80;97.00;;;;;;5070748;28;20047;-52
2023/09/10 09:29:53;;;;;;;79.18;16.85;;;23.90;97.60;;;;;;5069522;28;20040;-52
2023/09/10 09:32:19;;;;;;;81.03;18.17;;;23.90;97.30;;;;;;5086248;28;20032;-52
2023/09/10 09:34:45;;;;;;;71.80;17.52;;;24.00;97.20;;;;;;5038180;28;20045;-51
2023/09/10 09:37:10;;;;;;;57.70;16.70;;;23.90;97.10;;;;;;5087887;28;20115;-50
2023/09/10 09:39:38;;;;;;;82.55;17.80;;;24.00;97.20;;;;;;5071742;28;20060;-52
2023/09/10 09:42:04;;;;;;;82.93;17.83;;;24.00;97.60;;;;;;5088075;28;20055;-51
2023/09/10 09:44:30;;;;;;;104.43;21.55;;;24.00;97.60;;;;;;5061621;28;20151;-51
2023/09/10 09:46:56;;;;;;;104.85;22.00;;;24.00;98.10;;;;;;5078995;28;20086;-51
2023/09/10 09:49:21;;;;;;;103.65;20.88;;;24.10;98.00;;;;;;5067474;28;20569;-52
2023/09/10 09:51:47;;;;;;;182.20;23.95;;;24.10;97.90;;;;;;5067928;28;20040;-51
2023/09/10 09:54:13;;;;;;;130.75;21.13;;;24.10;98.00;;;;;;5066323;28;20107;-52
2023/09/10 09:56:38;;;;;;;95.55;19.95;;;24.20;97.90;;;;;;5083776;28;20292;-51
2023/09/10 09:59:04;;;;;;;101.38;21.58;;;24.20;97.90;;;;;;5068463;28;20063;-51
2023/09/10 10:01:30;;;;;;;105.50;21.70;;;24.20;98.10;;;;;;5083020;28;20043;-52
2023/09/10 10:03:57;;;;;;;108.57;20.40;;;24.20;98.20;;;;;;5069436;28;20032;-51
2023/09/10 10:06:23;;;;;;;96.97;18.77;;;24.30;98.30;;;;;;5087819;28;20048;-54
2023/09/10 10:08:49;;;;;;;95.13;19.55;;;24.40;98.20;;;;;;5082430;28;20045;-53
2023/09/10 10:11:16;;;;;;;82.50;18.27;;;24.40;98.00;;;;;;5065751;28;20037;-53
2023/09/10 10:13:42;;;;;;;102.82;20.73;;;24.40;97.90;;;;;;5045311;28;20037;-54
2023/09/10 10:16:07;;;;;;;69.85;17.77;;;24.40;97.80;;;;;;5069253;28;20036;-53
2023/09/10 10:18:33;;;;;;;138.52;19.23;;;24.50;97.60;;;;;;5050145;28;20061;-53
2023/09/10 10:20:58;;;;;;;77.57;18.17;;;24.50;97.50;;;;;;5070974;28;20036;-53
2023/09/10 10:23:24;;;;;;;103.35;20.38;;;24.50;97.50;;;;;;5063017;28;20043;-53
2023/09/10 10:25:49;;;;;;;104.28;19.83;;;24.50;97.50;;;;;;5044455;28;20036;-53
2023/09/10 10:28:15;;;;;;;69.82;16.95;;;24.60;97.70;;;;;;5054362;28;20040;-51
2023/09/10 10:30:52;;;;;;;99.32;20.85;;;24.60;97.50;;;;;;5067356;28;20040;-51
2023/09/10 10:33:18;;;;;;;131.18;21.50;;;24.60;97.40;;;;;;5060508;28;20055;-51
2023/09/10 10:35:50;;;;;;;105.45;20.08;;;24.60;97.50;;;;;;5060491;28;20033;-52
2023/09/10 10:38:16;;;;;;;74.88;17.70;;;24.70;97.20;;;;;;5063998;28;20063;-52
2023/09/10 10:40:43;;;;;;;82.28;18.60;;;24.80;97.10;;;;;;5068353;28;20033;-51
2023/09/10 10:43:29;;;;;;;96.95;20.08;;;24.80;96.90;;;;;;5084735;28;20051;-51
2023/09/10 10:45:58;;;;;;;99.53;20.60;;;24.80;96.90;;;;;;5049972;28;20052;-52
2023/09/10 10:48:28;;;;;;;106.80;21.73;;;24.90;96.70;;;;;;5049847;28;20143;-52
2023/09/10 10:50:55;;;;;;;120.82;20.75;;;24.90;96.60;;;;;;5054001;28;20040;-52
2023/09/10 10:53:21;;;;;;;114.93;20.70;;;25.00;96.40;;;;;;5052693;28;20033;-52
2023/09/10 10:55:56;;;;;;;112.93;20.20;;;25.10;96.10;;;;;;5084674;28;20051;-52
2023/09/10 10:58:24;;;;;;;84.43;18.92;;;25.10;95.70;;;;;;5075497;28;20028;-52
2023/09/10 11:00:54;;;;;;;100.53;19.65;;;25.10;95.50;;;;;;5061817;28;20036;-51
2023/09/10 11:03:20;;;;;;;74.03;17.50;;;25.10;95.30;;;;;;5073283;28;20033;-51
2023/09/10 11:06:04;;;;;;;97.60;20.13;;;25.20;94.90;;;;;;5086463;28;20051;-52
2023/09/10 11:08:36;;;;;;;90.68;18.80;;;25.20;94.60;;;;;;5084257;28;20036;-51
2023/09/10 11:11:06;;;;;;;85.63;17.73;;;25.30;94.30;;;;;;5059075;28;20052;-51
2023/09/10 11:13:35;;;;;;;84.43;19.02;;;25.30;93.80;;;;;;5069446;28;20029;-51
2023/09/10 11:16:03;;;;;;;80.25;17.27;;;25.30;93.40;;;;;;5063725;28;20048;-51
2023/09/10 11:18:35;;;;;;;92.63;16.65;;;25.40;93.20;;;;;;5085629;28;20040;-51
2023/09/10 11:21:07;;;;;;;72.43;15.60;;;25.40;92.80;;;;;;5085851;28;20062;-51
2023/09/10 11:23:33;;;;;;;64.53;14.43;;;25.50;92.50;;;;;;5087409;28;20033;-52
2023/09/10 11:26:14;;;;;;;62.70;14.65;;;25.50;92.30;;;;;;5075353;28;20105;-51
2023/09/10 11:28:50;;;;;;;45.90;13.57;;;25.60;92.00;;;;;;5084404;28;20045;-52
2023/09/10 11:31:45;;;;;;;66.05;12.85;;;25.60;91.60;;;;;;5085327;28;20044;-51
2023/09/10 11:34:31;;;;;;;61.35;13.63;;;25.60;91.10;;;;;;5083836;28;20051;-52
2023/09/10 11:37:03;;;;;;;;;;;25.70;90.50;;;;;;5067177;28;20032;-52
2023/09/10 11:39:29;;;;;;;68.80;12.23;;;25.80;90.10;;;;;;5065654;28;19917;-52
2023/09/10 11:41:56;;;;;;;69.25;13.30;;;25.90;89.30;;;;;;5068665;28;20346;-51
2023/09/10 11:44:22;;;;;;;43.45;11.07;;;26.00;88.70;;;;;;5084864;28;20044;-52
2023/09/10 11:46:48;;;;;;;67.80;12.35;;;26.10;87.90;;;;;;5068905;28;20448;-52
2023/09/10 11:49:14;;;;;;;86.85;16.30;;;26.10;86.60;;;;;;5068856;28;20033;-52
2023/09/10 11:51:46;;;;;;;65.50;12.43;;;26.20;86.40;;;;;;5068830;28;20102;-51
2023/09/10 11:54:18;;;;;;;62.63;11.77;;;26.30;84.50;;;;;;5068456;28;20045;-52
2023/09/10 11:56:47;;;;;;;50.17;12.20;;;26.30;84.00;;;;;;5082221;28;20036;-52
2023/09/10 11:59:25;;;;;;;108.85;14.88;;;26.40;83.90;;;;;;5086236;28;20040;-52
2023/09/10 12:01:54;;;;;;;137.93;19.55;;;26.40;82.80;;;;;;5051985;28;20080;-53
2023/09/10 12:04:25;;;;;;;99.10;18.20;;;26.50;81.90;;;;;;5081364;28;20047;-52
2023/09/10 12:06:51;;;;;;;108.32;16.92;;;26.50;81.70;;;;;;5073647;28;20084;-52
2023/09/10 12:09:18;;;;;;;134.60;17.95;;;26.60;81.20;;;;;;5086241;28;20047;-52
2023/09/10 12:11:44;;;;;;;124.85;18.70;;;26.60;80.60;;;;;;5085093;28;20105;-52
2023/09/10 12:14:09;;;;;;;115.18;18.83;;;26.70;80.50;;;;;;5075816;28;20040;-52
2023/09/10 12:16:35;;;;;;;122.38;19.85;;;26.80;80.10;;;;;;5085404;28;20165;-52
2023/09/10 12:19:00;;;;;;;148.50;21.13;;;26.80;80.40;;;;;;5039277;28;20032;-52
2023/09/10 12:21:26;;;;;;;172.15;23.70;;;26.90;79.80;;;;;;5068462;28;20024;-52
2023/09/10 12:23:52;;;;;;;142.05;20.13;;;26.90;79.20;;;;;;5051490;28;20407;-52
2023/09/10 12:26:19;;;;;;;129.95;18.90;;;27.10;78.20;;;;;;5068307;28;20032;-52
2023/09/10 12:28:45;;;;;;;126.65;19.27;;;27.10;77.30;;;;;;5068825;28;20032;-52
2023/09/10 12:31:11;;;;;;;113.88;19.85;;;27.10;77.30;;;;;;5049544;28;20081;-52
2023/09/10 12:33:36;;;;;;;132.38;19.98;;;27.20;77.30;;;;;;5071198;28;20036;-52
2023/09/10 12:36:02;;;;;;;152.57;20.42;;;27.20;77.10;;;;;;5085822;28;20040;-52